sensor_id;sensor_type;location;lat;lon;timestamp;temperature;humidity
1405;DHT22;697;51.114;6.542;2023-04-21T00:02:20;11.80;93.20
1405;DHT22;697;51.114;6.542;2023-04-21T00:04:48;11.80;93.70
1405;DHT22;697;51.114;6.542;2023-04-21T00:07:16;11.80;93.80
1405;DHT22;697;51.114;6.542;2023-04-21T00:09:44;11.80;93.90
1405;DHT22;697;51.114;6.542;2023-04-21T00:12:11;11.70;93.90
1405;DHT22;697;51.114;6.542;2023-04-21T00:14:38;11.70;94.00
1405;DHT22;697;51.114;6.542;2023-04-21T00:17:05;11.70;94.10
1405;DHT22;697;51.114;6.542;2023-04-21T00:19:32;11.70;94.10
1405;DHT22;697;51.114;6.542;2023-04-21T00:22:01;11.70;94.30
1405;DHT22;697;51.114;6.542;2023-04-21T00:24:28;11.70;94.80
1405;DHT22;697;51.114;6.542;2023-04-21T00:26:55;11.60;95.20
1405;DHT22;697;51.114;6.542;2023-04-21T00:29:22;11.60;95.20
1405;DHT22;697;51.114;6.542;2023-04-21T00:31:48;11.60;95.20
1405;DHT22;697;51.114;6.542;2023-04-21T00:34:15;11.50;95.30
1405;DHT22;697;51.114;6.542;2023-04-21T00:36:42;11.60;95.30
1405;DHT22;697;51.114;6.542;2023-04-21T00:39:10;11.60;95.50
1405;DHT22;697;51.114;6.542;2023-04-21T00:41:36;11.50;95.90
1405;DHT22;697;51.114;6.542;2023-04-21T00:44:05;11.50;96.20
1405;DHT22;697;51.114;6.542;2023-04-21T00:46:33;11.50;96.30
1405;DHT22;697;51.114;6.542;2023-04-21T00:49:02;11.50;96.10
1405;DHT22;697;51.114;6.542;2023-04-21T00:51:29;11.50;96.40
1405;DHT22;697;51.114;6.542;2023-04-21T00:53:58;11.50;96.30
1405;DHT22;697;51.114;6.542;2023-04-21T00:56:27;11.50;96.30
1405;DHT22;697;51.114;6.542;2023-04-21T00:58:57;11.50;96.40
1405;DHT22;697;51.114;6.542;2023-04-21T01:01:24;11.50;96.40
1405;DHT22;697;51.114;6.542;2023-04-21T01:03:52;11.50;96.50
1405;DHT22;697;51.114;6.542;2023-04-21T01:06:18;11.60;96.40
1405;DHT22;697;51.114;6.542;2023-04-21T01:08:45;11.50;96.40
1405;DHT22;697;51.114;6.542;2023-04-21T01:11:13;11.50;96.50
1405;DHT22;697;51.114;6.542;2023-04-21T01:13:41;11.60;96.70
1405;DHT22;697;51.114;6.542;2023-04-21T01:16:07;11.50;96.60
1405;DHT22;697;51.114;6.542;2023-04-21T01:18:34;11.50;96.60
1405;DHT22;697;51.114;6.542;2023-04-21T01:21:02;11.50;96.60
1405;DHT22;697;51.114;6.542;2023-04-21T01:23:30;11.50;96.70
1405;DHT22;697;51.114;6.542;2023-04-21T01:25:57;11.50;96.70
1405;DHT22;697;51.114;6.542;2023-04-21T01:28:24;11.50;96.80
1405;DHT22;697;51.114;6.542;2023-04-21T01:30:52;11.50;97.00
1405;DHT22;697;51.114;6.542;2023-04-21T01:33:20;11.50;97.10
1405;DHT22;697;51.114;6.542;2023-04-21T01:35:46;11.50;97.10
1405;DHT22;697;51.114;6.542;2023-04-21T01:38:13;11.50;97.10
1405;DHT22;697;51.114;6.542;2023-04-21T01:40:46;11.50;97.10
1405;DHT22;697;51.114;6.542;2023-04-21T01:43:13;11.50;97.10
1405;DHT22;697;51.114;6.542;2023-04-21T01:45:40;11.50;97.20
1405;DHT22;697;51.114;6.542;2023-04-21T01:48:07;11.50;97.10
1405;DHT22;697;51.114;6.542;2023-04-21T01:50:34;11.50;97.30
1405;DHT22;697;51.114;6.542;2023-04-21T01:53:01;11.50;97.40
1405;DHT22;697;51.114;6.542;2023-04-21T01:55:27;11.50;97.40
1405;DHT22;697;51.114;6.542;2023-04-21T01:57:56;11.50;97.30
1405;DHT22;697;51.114;6.542;2023-04-21T02:00:23;11.50;97.20
1405;DHT22;697;51.114;6.542;2023-04-21T02:02:50;11.50;97.10
1405;DHT22;697;51.114;6.542;2023-04-21T02:05:17;11.50;97.20
1405;DHT22;697;51.114;6.542;2023-04-21T02:07:44;11.50;97.40
1405;DHT22;697;51.114;6.542;2023-04-21T02:10:11;11.50;97.60
1405;DHT22;697;51.114;6.542;2023-04-21T02:12:38;11.50;97.70
1405;DHT22;697;51.114;6.542;2023-04-21T02:15:07;11.50;97.80
1405;DHT22;697;51.114;6.542;2023-04-21T02:17:34;11.40;97.90
1405;DHT22;697;51.114;6.542;2023-04-21T02:20:01;11.40;98.00
1405;DHT22;697;51.114;6.542;2023-04-21T02:22:28;11.40;98.30
1405;DHT22;697;51.114;6.542;2023-04-21T02:24:55;11.40;98.40
1405;DHT22;697;51.114;6.542;2023-04-21T02:27:21;11.40;98.40
1405;DHT22;697;51.114;6.542;2023-04-21T02:29:48;11.40;98.50
1405;DHT22;697;51.114;6.542;2023-04-21T02:32:16;11.40;98.50
1405;DHT22;697;51.114;6.542;2023-04-21T02:34:43;11.50;98.50
1405;DHT22;697;51.114;6.542;2023-04-21T02:37:09;11.50;98.50
1405;DHT22;697;51.114;6.542;2023-04-21T02:39:36;11.50;98.50
1405;DHT22;697;51.114;6.542;2023-04-21T02:42:03;11.50;98.40
1405;DHT22;697;51.114;6.542;2023-04-21T02:44:29;11.50;98.20
1405;DHT22;697;51.114;6.542;2023-04-21T02:46:56;11.50;98.30
1405;DHT22;697;51.114;6.542;2023-04-21T02:49:24;11.50;98.30
1405;DHT22;697;51.114;6.542;2023-04-21T02:51:51;11.50;98.30
1405;DHT22;697;51.114;6.542;2023-04-21T02:54:19;11.50;98.30
1405;DHT22;697;51.114;6.542;2023-04-21T02:56:46;11.50;97.90
1405;DHT22;697;51.114;6.542;2023-04-21T02:59:12;11.50;97.40
1405;DHT22;697;51.114;6.542;2023-04-21T03:01:40;11.40;97.20
1405;DHT22;697;51.114;6.542;2023-04-21T03:04:07;11.40;97.10
1405;DHT22;697;51.114;6.542;2023-04-21T03:06:35;11.40;96.90
1405;DHT22;697;51.114;6.542;2023-04-21T03:09:02;11.30;96.90
1405;DHT22;697;51.114;6.542;2023-04-21T03:11:29;11.20;96.80
1405;DHT22;697;51.114;6.542;2023-04-21T03:13:55;11.10;96.50
1405;DHT22;697;51.114;6.542;2023-04-21T03:16:22;11.10;96.40
1405;DHT22;697;51.114;6.542;2023-04-21T03:18:49;11.00;96.20
1405;DHT22;697;51.114;6.542;2023-04-21T03:21:15;11.00;96.20
1405;DHT22;697;51.114;6.542;2023-04-21T03:23:44;10.90;96.20
1405;DHT22;697;51.114;6.542;2023-04-21T03:26:10;10.90;96.10
1405;DHT22;697;51.114;6.542;2023-04-21T03:28:37;10.80;96.20
1405;DHT22;697;51.114;6.542;2023-04-21T03:31:04;10.80;96.30
1405;DHT22;697;51.114;6.542;2023-04-21T03:33:30;10.80;96.40
1405;DHT22;697;51.114;6.542;2023-04-21T03:35:57;10.70;96.50
1405;DHT22;697;51.114;6.542;2023-04-21T03:38:24;10.70;96.60
1405;DHT22;697;51.114;6.542;2023-04-21T03:40:52;10.70;96.70
1405;DHT22;697;51.114;6.542;2023-04-21T03:43:18;10.60;96.70
1405;DHT22;697;51.114;6.542;2023-04-21T03:45:45;10.60;96.80
1405;DHT22;697;51.114;6.542;2023-04-21T03:48:12;10.60;96.90
1405;DHT22;697;51.114;6.542;2023-04-21T03:50:38;10.60;96.90
1405;DHT22;697;51.114;6.542;2023-04-21T03:53:05;10.60;97.00
1405;DHT22;697;51.114;6.542;2023-04-21T03:55:32;10.50;97.10
1405;DHT22;697;51.114;6.542;2023-04-21T03:58:00;10.50;97.30
1405;DHT22;697;51.114;6.542;2023-04-21T04:00:26;10.60;97.40
1405;DHT22;697;51.114;6.542;2023-04-21T04:02:53;10.50;97.40
1405;DHT22;697;51.114;6.542;2023-04-21T04:05:20;10.50;97.50
1405;DHT22;697;51.114;6.542;2023-04-21T04:07:46;10.50;97.60
1405;DHT22;697;51.114;6.542;2023-04-21T04:10:13;10.50;97.70
1405;DHT22;697;51.114;6.542;2023-04-21T04:12:40;10.50;97.80
1405;DHT22;697;51.114;6.542;2023-04-21T04:15:08;10.50;97.80
1405;DHT22;697;51.114;6.542;2023-04-21T04:17:35;10.60;97.80
1405;DHT22;697;51.114;6.542;2023-04-21T04:20:01;10.50;97.80
1405;DHT22;697;51.114;6.542;2023-04-21T04:22:30;10.50;97.70
1405;DHT22;697;51.114;6.542;2023-04-21T04:24:58;10.50;97.60
1405;DHT22;697;51.114;6.542;2023-04-21T04:27:26;10.50;97.50
1405;DHT22;697;51.114;6.542;2023-04-21T04:29:53;10.40;97.50
1405;DHT22;697;51.114;6.542;2023-04-21T04:32:21;10.40;97.60
1405;DHT22;697;51.114;6.542;2023-04-21T04:34:47;10.40;97.70
1405;DHT22;697;51.114;6.542;2023-04-21T04:37:16;10.40;97.80
1405;DHT22;697;51.114;6.542;2023-04-21T04:39:46;10.30;97.90
1405;DHT22;697;51.114;6.542;2023-04-21T04:42:13;10.30;98.10
1405;DHT22;697;51.114;6.542;2023-04-21T04:44:40;10.30;98.30
1405;DHT22;697;51.114;6.542;2023-04-21T04:47:06;10.30;98.50
1405;DHT22;697;51.114;6.542;2023-04-21T04:49:34;10.30;98.70
1405;DHT22;697;51.114;6.542;2023-04-21T04:52:01;10.30;98.90
1405;DHT22;697;51.114;6.542;2023-04-21T04:54:28;10.30;99.00
1405;DHT22;697;51.114;6.542;2023-04-21T04:56:55;10.30;99.00
1405;DHT22;697;51.114;6.542;2023-04-21T04:59:23;10.30;99.10
1405;DHT22;697;51.114;6.542;2023-04-21T05:01:49;10.40;99.10
1405;DHT22;697;51.114;6.542;2023-04-21T05:04:17;10.40;99.10
1405;DHT22;697;51.114;6.542;2023-04-21T05:06:45;10.40;99.10
1405;DHT22;697;51.114;6.542;2023-04-21T05:09:11;10.40;99.20
1405;DHT22;697;51.114;6.542;2023-04-21T05:11:38;10.40;99.10
1405;DHT22;697;51.114;6.542;2023-04-21T05:14:05;10.30;99.10
1405;DHT22;697;51.114;6.542;2023-04-21T05:16:31;10.30;99.10
1405;DHT22;697;51.114;6.542;2023-04-21T05:19:00;10.40;99.30
1405;DHT22;697;51.114;6.542;2023-04-21T05:21:27;10.40;99.30
1405;DHT22;697;51.114;6.542;2023-04-21T05:23:56;10.50;99.50
1405;DHT22;697;51.114;6.542;2023-04-21T05:26:23;10.50;99.50
1405;DHT22;697;51.114;6.542;2023-04-21T05:28:50;10.50;99.50
1405;DHT22;697;51.114;6.542;2023-04-21T05:31:16;10.60;99.50
1405;DHT22;697;51.114;6.542;2023-04-21T05:33:43;10.60;99.40
1405;DHT22;697;51.114;6.542;2023-04-21T05:36:10;10.60;99.40
1405;DHT22;697;51.114;6.542;2023-04-21T05:38:37;10.60;99.10
1405;DHT22;697;51.114;6.542;2023-04-21T05:41:06;10.60;99.10
1405;DHT22;697;51.114;6.542;2023-04-21T05:43:34;10.60;98.90
1405;DHT22;697;51.114;6.542;2023-04-21T05:46:01;10.60;99.00
1405;DHT22;697;51.114;6.542;2023-04-21T05:48:28;10.60;98.90
1405;DHT22;697;51.114;6.542;2023-04-21T05:50:55;10.60;98.80
1405;DHT22;697;51.114;6.542;2023-04-21T05:53:21;10.60;98.90
1405;DHT22;697;51.114;6.542;2023-04-21T05:55:48;10.60;99.00
1405;DHT22;697;51.114;6.542;2023-04-21T05:58:17;10.60;99.10
1405;DHT22;697;51.114;6.542;2023-04-21T06:00:43;10.60;99.10
1405;DHT22;697;51.114;6.542;2023-04-21T06:03:11;10.60;99.20
1405;DHT22;697;51.114;6.542;2023-04-21T06:05:38;10.70;99.30
1405;DHT22;697;51.114;6.542;2023-04-21T06:08:05;10.70;99.20
1405;DHT22;697;51.114;6.542;2023-04-21T06:10:31;10.70;99.40
1405;DHT22;697;51.114;6.542;2023-04-21T06:12:58;10.70;99.30
1405;DHT22;697;51.114;6.542;2023-04-21T06:15:26;10.80;99.40
1405;DHT22;697;51.114;6.542;2023-04-21T06:17:53;10.90;99.40
1405;DHT22;697;51.114;6.542;2023-04-21T06:20:20;10.90;99.40
1405;DHT22;697;51.114;6.542;2023-04-21T06:22:47;10.90;99.50
1405;DHT22;697;51.114;6.542;2023-04-21T06:25:13;11.00;99.50
1405;DHT22;697;51.114;6.542;2023-04-21T06:27:40;11.00;99.50
1405;DHT22;697;51.114;6.542;2023-04-21T06:30:07;11.00;99.60
1405;DHT22;697;51.114;6.542;2023-04-21T06:32:36;11.10;99.60
1405;DHT22;697;51.114;6.542;2023-04-21T06:35:03;11.10;99.60
1405;DHT22;697;51.114;6.542;2023-04-21T06:37:29;11.20;99.50
1405;DHT22;697;51.114;6.542;2023-04-21T06:39:56;11.20;99.30
1405;DHT22;697;51.114;6.542;2023-04-21T06:42:23;11.30;99.30
1405;DHT22;697;51.114;6.542;2023-04-21T06:44:49;11.30;99.30
1405;DHT22;697;51.114;6.542;2023-04-21T06:47:16;11.30;99.20
1405;DHT22;697;51.114;6.542;2023-04-21T06:49:45;11.40;99.10
1405;DHT22;697;51.114;6.542;2023-04-21T06:52:11;11.40;99.10
1405;DHT22;697;51.114;6.542;2023-04-21T06:54:38;11.40;99.20
1405;DHT22;697;51.114;6.542;2023-04-21T06:57:05;11.40;99.30
1405;DHT22;697;51.114;6.542;2023-04-21T06:59:32;11.50;99.40
1405;DHT22;697;51.114;6.542;2023-04-21T07:01:59;11.60;99.40
1405;DHT22;697;51.114;6.542;2023-04-21T07:04:26;11.60;99.30
1405;DHT22;697;51.114;6.542;2023-04-21T07:06:57;11.70;99.40
1405;DHT22;697;51.114;6.542;2023-04-21T07:09:24;11.80;99.30
1405;DHT22;697;51.114;6.542;2023-04-21T07:11:52;11.90;99.10
1405;DHT22;697;51.114;6.542;2023-04-21T07:14:19;12.00;98.80
1405;DHT22;697;51.114;6.542;2023-04-21T07:16:46;12.10;98.60
1405;DHT22;697;51.114;6.542;2023-04-21T07:19:13;12.20;98.50
1405;DHT22;697;51.114;6.542;2023-04-21T07:21:39;12.30;98.30
1405;DHT22;697;51.114;6.542;2023-04-21T07:24:08;12.40;98.00
1405;DHT22;697;51.114;6.542;2023-04-21T07:26:34;12.40;97.70
1405;DHT22;697;51.114;6.542;2023-04-21T07:29:01;12.50;97.30
1405;DHT22;697;51.114;6.542;2023-04-21T07:31:28;12.60;97.20
1405;DHT22;697;51.114;6.542;2023-04-21T07:33:54;12.80;97.00
1405;DHT22;697;51.114;6.542;2023-04-21T07:36:21;12.80;96.50
1405;DHT22;697;51.114;6.542;2023-04-21T07:38:48;12.90;96.50
1405;DHT22;697;51.114;6.542;2023-04-21T07:41:16;13.10;96.40
1405;DHT22;697;51.114;6.542;2023-04-21T07:43:44;13.20;96.20
1405;DHT22;697;51.114;6.542;2023-04-21T07:46:10;13.40;96.00
1405;DHT22;697;51.114;6.542;2023-04-21T07:48:38;13.50;95.70
1405;DHT22;697;51.114;6.542;2023-04-21T07:51:05;13.70;95.50
1405;DHT22;697;51.114;6.542;2023-04-21T07:53:32;13.90;95.10
1405;DHT22;697;51.114;6.542;2023-04-21T07:55:58;14.10;94.70
1405;DHT22;697;51.114;6.542;2023-04-21T07:58:26;14.30;93.80
1405;DHT22;697;51.114;6.542;2023-04-21T08:00:53;14.40;93.40
1405;DHT22;697;51.114;6.542;2023-04-21T08:03:20;14.60;92.30
1405;DHT22;697;51.114;6.542;2023-04-21T08:05:46;14.60;92.20
1405;DHT22;697;51.114;6.542;2023-04-21T08:08:13;14.70;91.70
1405;DHT22;697;51.114;6.542;2023-04-21T08:10:44;14.70;91.70
1405;DHT22;697;51.114;6.542;2023-04-21T08:13:11;14.80;92.30
1405;DHT22;697;51.114;6.542;2023-04-21T08:15:39;15.00;91.90
1405;DHT22;697;51.114;6.542;2023-04-21T08:18:07;15.20;91.50
1405;DHT22;697;51.114;6.542;2023-04-21T08:20:34;15.30;91.20
1405;DHT22;697;51.114;6.542;2023-04-21T08:23:00;15.40;91.00
1405;DHT22;697;51.114;6.542;2023-04-21T08:25:27;15.50;90.50
1405;DHT22;697;51.114;6.542;2023-04-21T08:27:54;15.60;90.50
1405;DHT22;697;51.114;6.542;2023-04-21T08:30:21;15.70;90.30
1405;DHT22;697;51.114;6.542;2023-04-21T08:32:49;15.80;90.10
1405;DHT22;697;51.114;6.542;2023-04-21T08:35:15;15.80;89.10
1405;DHT22;697;51.114;6.542;2023-04-21T08:37:42;15.80;87.40
1405;DHT22;697;51.114;6.542;2023-04-21T08:40:10;15.80;88.60
1405;DHT22;697;51.114;6.542;2023-04-21T08:42:37;15.90;88.80
1405;DHT22;697;51.114;6.542;2023-04-21T08:45:05;15.90;88.00
1405;DHT22;697;51.114;6.542;2023-04-21T08:47:32;15.90;88.10
1405;DHT22;697;51.114;6.542;2023-04-21T08:50:00;15.90;88.30
1405;DHT22;697;51.114;6.542;2023-04-21T08:52:27;15.90;87.70
1405;DHT22;697;51.114;6.542;2023-04-21T08:54:54;15.80;87.50
1405;DHT22;697;51.114;6.542;2023-04-21T08:57:21;15.80;88.50
1405;DHT22;697;51.114;6.542;2023-04-21T08:59:48;15.80;88.80
1405;DHT22;697;51.114;6.542;2023-04-21T09:02:16;15.80;88.20
1405;DHT22;697;51.114;6.542;2023-04-21T09:04:44;15.70;86.50
1405;DHT22;697;51.114;6.542;2023-04-21T09:07:30;15.80;87.40
1405;DHT22;697;51.114;6.542;2023-04-21T09:09:57;16.10;88.10
1405;DHT22;697;51.114;6.542;2023-04-21T09:12:24;16.30;86.60
1405;DHT22;697;51.114;6.542;2023-04-21T09:14:52;16.50;86.10
1405;DHT22;697;51.114;6.542;2023-04-21T09:17:20;16.70;84.90
1405;DHT22;697;51.114;6.542;2023-04-21T09:19:47;16.90;84.80
1405;DHT22;697;51.114;6.542;2023-04-21T09:22:16;17.10;84.00
1405;DHT22;697;51.114;6.542;2023-04-21T09:24:44;17.30;84.80
1405;DHT22;697;51.114;6.542;2023-04-21T09:27:12;17.60;84.20
1405;DHT22;697;51.114;6.542;2023-04-21T09:29:44;17.90;82.50
1405;DHT22;697;51.114;6.542;2023-04-21T09:32:16;18.20;82.90
1405;DHT22;697;51.114;6.542;2023-04-21T09:34:43;18.50;79.70
1405;DHT22;697;51.114;6.542;2023-04-21T09:37:12;18.70;78.00
1405;DHT22;697;51.114;6.542;2023-04-21T09:39:44;18.90;76.60
1405;DHT22;697;51.114;6.542;2023-04-21T09:42:11;19.20;77.10
1405;DHT22;697;51.114;6.542;2023-04-21T09:44:38;19.50;76.00
1405;DHT22;697;51.114;6.542;2023-04-21T09:47:09;19.90;73.10
1405;DHT22;697;51.114;6.542;2023-04-21T09:49:38;20.10;71.70
1405;DHT22;697;51.114;6.542;2023-04-21T09:52:10;20.40;71.20
1405;DHT22;697;51.114;6.542;2023-04-21T09:54:42;20.70;70.60
1405;DHT22;697;51.114;6.542;2023-04-21T09:57:12;21.10;70.20
1405;DHT22;697;51.114;6.542;2023-04-21T09:59:44;21.50;68.50
1405;DHT22;697;51.114;6.542;2023-04-21T10:02:12;21.80;64.60
1405;DHT22;697;51.114;6.542;2023-04-21T10:04:40;22.10;63.50
1405;DHT22;697;51.114;6.542;2023-04-21T10:07:09;22.40;60.60
1405;DHT22;697;51.114;6.542;2023-04-21T10:09:40;22.70;58.70
1405;DHT22;697;51.114;6.542;2023-04-21T10:12:10;22.80;58.00
1405;DHT22;697;51.114;6.542;2023-04-21T10:14:38;22.90;57.40
1405;DHT22;697;51.114;6.542;2023-04-21T10:17:06;23.20;57.10
1405;DHT22;697;51.114;6.542;2023-04-21T10:19:35;23.60;56.40
1405;DHT22;697;51.114;6.542;2023-04-21T10:22:05;23.90;55.30
1405;DHT22;697;51.114;6.542;2023-04-21T10:24:36;24.40;53.60
1405;DHT22;697;51.114;6.542;2023-04-21T10:27:03;24.90;53.10
1405;DHT22;697;51.114;6.542;2023-04-21T10:29:32;25.30;50.20
1405;DHT22;697;51.114;6.542;2023-04-21T10:31:59;25.70;49.70
1405;DHT22;697;51.114;6.542;2023-04-21T10:34:33;26.20;48.30
1405;DHT22;697;51.114;6.542;2023-04-21T10:37:09;26.60;45.90
1405;DHT22;697;51.114;6.542;2023-04-21T10:39:50;27.10;44.60
1405;DHT22;697;51.114;6.542;2023-04-21T10:42:22;27.60;41.70
1405;DHT22;697;51.114;6.542;2023-04-21T10:45:00;28.10;40.80
1405;DHT22;697;51.114;6.542;2023-04-21T10:47:31;28.30;38.60
1405;DHT22;697;51.114;6.542;2023-04-21T10:50:11;28.50;38.70
1405;DHT22;697;51.114;6.542;2023-04-21T10:52:38;28.80;37.90
1405;DHT22;697;51.114;6.542;2023-04-21T10:55:07;29.00;37.20
1405;DHT22;697;51.114;6.542;2023-04-21T10:57:35;29.50;37.50
1405;DHT22;697;51.114;6.542;2023-04-21T11:00:04;30.00;34.70
1405;DHT22;697;51.114;6.542;2023-04-21T11:02:32;30.00;33.50
1405;DHT22;697;51.114;6.542;2023-04-21T11:05:00;29.60;34.00
1405;DHT22;697;51.114;6.542;2023-04-21T11:07:27;29.40;34.70
1405;DHT22;697;51.114;6.542;2023-04-21T11:09:57;29.60;34.60
1405;DHT22;697;51.114;6.542;2023-04-21T11:12:27;30.20;35.10
1405;DHT22;697;51.114;6.542;2023-04-21T11:14:54;30.70;33.60
1405;DHT22;697;51.114;6.542;2023-04-21T11:17:23;31.30;33.10
1405;DHT22;697;51.114;6.542;2023-04-21T11:19:51;31.90;30.70
1405;DHT22;697;51.114;6.542;2023-04-21T11:22:19;32.50;30.00
1405;DHT22;697;51.114;6.542;2023-04-21T11:24:48;32.80;28.70
1405;DHT22;697;51.114;6.542;2023-04-21T11:27:15;32.40;28.60
1405;DHT22;697;51.114;6.542;2023-04-21T11:29:44;31.70;29.30
1405;DHT22;697;51.114;6.542;2023-04-21T11:32:12;31.00;30.10
1405;DHT22;697;51.114;6.542;2023-04-21T11:34:40;30.30;31.10
1405;DHT22;697;51.114;6.542;2023-04-21T11:37:08;29.50;31.80
1405;DHT22;697;51.114;6.542;2023-04-21T11:39:35;29.40;33.00
1405;DHT22;697;51.114;6.542;2023-04-21T11:42:05;29.80;33.30
1405;DHT22;697;51.114;6.542;2023-04-21T11:44:35;30.50;32.80
1405;DHT22;697;51.114;6.542;2023-04-21T11:47:12;31.30;30.00
1405;DHT22;697;51.114;6.542;2023-04-21T11:49:48;32.20;29.50
1405;DHT22;697;51.114;6.542;2023-04-21T11:52:24;33.00;28.80
1405;DHT22;697;51.114;6.542;2023-04-21T11:54:56;33.70;28.00
1405;DHT22;697;51.114;6.542;2023-04-21T11:57:23;34.20;27.70
1405;DHT22;697;51.114;6.542;2023-04-21T11:59:51;34.60;26.80
1405;DHT22;697;51.114;6.542;2023-04-21T12:02:25;34.60;26.70
1405;DHT22;697;51.114;6.542;2023-04-21T12:05:03;34.70;26.30
1405;DHT22;697;51.114;6.542;2023-04-21T12:07:31;34.40;26.00
1405;DHT22;697;51.114;6.542;2023-04-21T12:09:58;33.60;26.60
1405;DHT22;697;51.114;6.542;2023-04-21T12:12:25;32.80;27.70
1405;DHT22;697;51.114;6.542;2023-04-21T12:14:52;32.60;28.70
1405;DHT22;697;51.114;6.542;2023-04-21T12:17:19;32.60;28.10
1405;DHT22;697;51.114;6.542;2023-04-21T12:19:46;33.00;27.80
1405;DHT22;697;51.114;6.542;2023-04-21T12:22:16;33.70;26.90
1405;DHT22;697;51.114;6.542;2023-04-21T12:24:44;34.40;26.90
1405;DHT22;697;51.114;6.542;2023-04-21T12:27:10;35.10;25.50
1405;DHT22;697;51.114;6.542;2023-04-21T12:29:38;35.70;24.70
1405;DHT22;697;51.114;6.542;2023-04-21T12:32:05;36.20;24.10
1405;DHT22;697;51.114;6.542;2023-04-21T12:34:32;36.60;23.70
1405;DHT22;697;51.114;6.542;2023-04-21T12:36:59;37.10;23.30
1405;DHT22;697;51.114;6.542;2023-04-21T12:39:27;37.70;22.50
1405;DHT22;697;51.114;6.542;2023-04-21T12:41:54;38.10;22.20
1405;DHT22;697;51.114;6.542;2023-04-21T12:44:22;38.50;21.30
1405;DHT22;697;51.114;6.542;2023-04-21T12:46:48;38.90;20.70
1405;DHT22;697;51.114;6.542;2023-04-21T12:49:16;39.10;20.40
1405;DHT22;697;51.114;6.542;2023-04-21T12:51:42;39.20;20.20
1405;DHT22;697;51.114;6.542;2023-04-21T12:54:09;38.40;20.20
1405;DHT22;697;51.114;6.542;2023-04-21T12:56:37;37.20;21.20
1405;DHT22;697;51.114;6.542;2023-04-21T12:59:06;35.90;22.70
1405;DHT22;697;51.114;6.542;2023-04-21T13:01:34;35.40;24.00
1405;DHT22;697;51.114;6.542;2023-04-21T13:04:01;35.00;24.00
1405;DHT22;697;51.114;6.542;2023-04-21T13:06:28;34.20;24.30
1405;DHT22;697;51.114;6.542;2023-04-21T13:08:55;33.70;24.70
1405;DHT22;697;51.114;6.542;2023-04-21T13:11:22;33.30;24.70
1405;DHT22;697;51.114;6.542;2023-04-21T13:13:50;32.70;24.40
1405;DHT22;697;51.114;6.542;2023-04-21T13:16:16;32.30;26.10
1405;DHT22;697;51.114;6.542;2023-04-21T13:18:44;32.40;26.80
1405;DHT22;697;51.114;6.542;2023-04-21T13:21:11;32.80;27.10
1405;DHT22;697;51.114;6.542;2023-04-21T13:23:38;33.30;26.30
1405;DHT22;697;51.114;6.542;2023-04-21T13:26:05;33.80;26.20
1405;DHT22;697;51.114;6.542;2023-04-21T13:28:32;34.10;25.10
1405;DHT22;697;51.114;6.542;2023-04-21T13:31:00;34.20;25.00
1405;DHT22;697;51.114;6.542;2023-04-21T13:33:27;34.00;24.90
1405;DHT22;697;51.114;6.542;2023-04-21T13:35:54;33.90;25.80
1405;DHT22;697;51.114;6.542;2023-04-21T13:38:21;34.10;25.20
1405;DHT22;697;51.114;6.542;2023-04-21T13:40:48;34.40;24.80
1405;DHT22;697;51.114;6.542;2023-04-21T13:43:15;35.00;24.70
1405;DHT22;697;51.114;6.542;2023-04-21T13:45:42;35.70;24.10
1405;DHT22;697;51.114;6.542;2023-04-21T13:48:11;36.40;22.70
1405;DHT22;697;51.114;6.542;2023-04-21T13:50:38;37.10;22.00
1405;DHT22;697;51.114;6.542;2023-04-21T13:53:05;36.90;21.90
1405;DHT22;697;51.114;6.542;2023-04-21T13:55:31;37.10;22.30
1405;DHT22;697;51.114;6.542;2023-04-21T13:57:58;37.60;21.60
1405;DHT22;697;51.114;6.542;2023-04-21T14:00:26;38.20;21.10
1405;DHT22;697;51.114;6.542;2023-04-21T14:02:53;39.00;21.00
1405;DHT22;697;51.114;6.542;2023-04-21T14:05:21;39.30;20.00
1405;DHT22;697;51.114;6.542;2023-04-21T14:07:48;39.80;19.60
1405;DHT22;697;51.114;6.542;2023-04-21T14:10:15;40.10;19.40
1405;DHT22;697;51.114;6.542;2023-04-21T14:12:41;40.50;19.00
1405;DHT22;697;51.114;6.542;2023-04-21T14:15:11;40.80;18.70
1405;DHT22;697;51.114;6.542;2023-04-21T14:17:37;41.10;18.40
1405;DHT22;697;51.114;6.542;2023-04-21T14:20:05;41.30;18.10
1405;DHT22;697;51.114;6.542;2023-04-21T14:22:35;41.60;18.00
1405;DHT22;697;51.114;6.542;2023-04-21T14:25:02;40.80;17.90
1405;DHT22;697;51.114;6.542;2023-04-21T14:27:29;39.70;19.20
1405;DHT22;697;51.114;6.542;2023-04-21T14:29:56;39.60;20.00
1405;DHT22;697;51.114;6.542;2023-04-21T14:32:23;39.60;19.40
1405;DHT22;697;51.114;6.542;2023-04-21T14:34:50;39.10;19.40
1405;DHT22;697;51.114;6.542;2023-04-21T14:37:18;38.60;20.00
1405;DHT22;697;51.114;6.542;2023-04-21T14:39:47;38.20;20.30
1405;DHT22;697;51.114;6.542;2023-04-21T14:42:13;37.90;21.40
1405;DHT22;697;51.114;6.542;2023-04-21T14:44:40;38.10;20.80
1405;DHT22;697;51.114;6.542;2023-04-21T14:47:07;38.30;20.50
1405;DHT22;697;51.114;6.542;2023-04-21T14:49:34;38.70;20.20
1405;DHT22;697;51.114;6.542;2023-04-21T14:52:00;39.10;19.80
1405;DHT22;697;51.114;6.542;2023-04-21T14:54:28;39.40;19.90
1405;DHT22;697;51.114;6.542;2023-04-21T14:56:56;39.30;19.40
1405;DHT22;697;51.114;6.542;2023-04-21T14:59:25;38.60;19.90
1405;DHT22;697;51.114;6.542;2023-04-21T15:01:51;38.20;20.60
1405;DHT22;697;51.114;6.542;2023-04-21T15:04:18;38.10;21.00
1405;DHT22;697;51.114;6.542;2023-04-21T15:06:45;38.10;20.40
1405;DHT22;697;51.114;6.542;2023-04-21T15:09:12;38.00;20.50
1405;DHT22;697;51.114;6.542;2023-04-21T15:11:39;37.40;21.10
1405;DHT22;697;51.114;6.542;2023-04-21T15:14:07;37.00;21.50
1405;DHT22;697;51.114;6.542;2023-04-21T15:16:34;37.10;21.70
1405;DHT22;697;51.114;6.542;2023-04-21T15:19:01;37.50;21.20
1405;DHT22;697;51.114;6.542;2023-04-21T15:21:28;37.80;20.60
1405;DHT22;697;51.114;6.542;2023-04-21T15:23:56;38.20;20.30
1405;DHT22;697;51.114;6.542;2023-04-21T15:26:23;38.50;19.90
1405;DHT22;697;51.114;6.542;2023-04-21T15:28:49;38.40;19.70
1405;DHT22;697;51.114;6.542;2023-04-21T15:31:17;37.70;20.30
1405;DHT22;697;51.114;6.542;2023-04-21T15:33:44;36.70;21.00
1405;DHT22;697;51.114;6.542;2023-04-21T15:36:11;35.60;22.10
1405;DHT22;697;51.114;6.542;2023-04-21T15:38:37;34.40;23.10
1405;DHT22;697;51.114;6.542;2023-04-21T15:41:04;33.20;24.40
1405;DHT22;697;51.114;6.542;2023-04-21T15:43:31;32.10;25.70
1405;DHT22;697;51.114;6.542;2023-04-21T15:45:58;31.30;26.60
1405;DHT22;697;51.114;6.542;2023-04-21T15:48:26;30.90;27.10
1405;DHT22;697;51.114;6.542;2023-04-21T15:50:53;30.50;27.70
1405;DHT22;697;51.114;6.542;2023-04-21T15:53:19;30.20;28.00
1405;DHT22;697;51.114;6.542;2023-04-21T15:55:46;29.80;28.10
1405;DHT22;697;51.114;6.542;2023-04-21T15:58:13;29.30;28.60
1405;DHT22;697;51.114;6.542;2023-04-21T16:00:40;28.80;29.10
1405;DHT22;697;51.114;6.542;2023-04-21T16:03:07;28.20;29.80
1405;DHT22;697;51.114;6.542;2023-04-21T16:05:35;27.60;30.20
1405;DHT22;697;51.114;6.542;2023-04-21T16:08:01;27.00;30.70
1405;DHT22;697;51.114;6.542;2023-04-21T16:10:28;26.10;30.70
1405;DHT22;697;51.114;6.542;2023-04-21T16:12:55;25.10;32.30
1405;DHT22;697;51.114;6.542;2023-04-21T16:15:21;24.20;32.50
1405;DHT22;697;51.114;6.542;2023-04-21T16:17:49;23.30;33.70
1405;DHT22;697;51.114;6.542;2023-04-21T16:20:16;22.50;35.60